sensor_id;sensor_type;location;lat;lon;timestamp;P1;durP1;ratioP1;P2;durP2;ratioP2
37787;SDS011;23627;53.302;-6.362;2022-08-21T00:00:28;7.80;;;1.40;;
37787;SDS011;23627;53.302;-6.362;2022-08-21T00:03:04;6.28;;;1.40;;
37787;SDS011;23627;53.302;-6.362;2022-08-21T00:05:33;6.80;;;1.48;;
37787;SDS011;23627;53.302;-6.362;2022-08-21T00:08:03;5.13;;;1.30;;
37787;SDS011;23627;53.302;-6.362;2022-08-21T00:10:29;6.82;;;1.58;;
37787;SDS011;23627;53.302;-6.362;2022-08-21T00:12:55;5.05;;;1.15;;
37787;SDS011;23627;53.302;-6.362;2022-08-21T00:15:23;7.05;;;1.50;;
37787;SDS011;23627;53.302;-6.362;2022-08-21T00:17:51;8.48;;;1.63;;
37787;SDS011;23627;53.302;-6.362;2022-08-21T00:20:18;5.50;;;1.42;;
37787;SDS011;23627;53.302;-6.362;2022-08-21T00:22:45;5.82;;;1.38;;
37787;SDS011;23627;53.302;-6.362;2022-08-21T00:25:12;5.05;;;1.30;;
37787;SDS011;23627;53.302;-6.362;2022-08-21T00:27:39;5.97;;;1.58;;
37787;SDS011;23627;53.302;-6.362;2022-08-21T00:30:08;9.50;;;1.95;;
37787;SDS011;23627;53.302;-6.362;2022-08-21T00:32:36;8.68;;;1.73;;
37787;SDS011;23627;53.302;-6.362;2022-08-21T00:35:04;7.15;;;1.30;;
37787;SDS011;23627;53.302;-6.362;2022-08-21T00:37:32;7.30;;;1.27;;
37787;SDS011;23627;53.302;-6.362;2022-08-21T00:39:58;6.32;;;1.40;;
37787;SDS011;23627;53.302;-6.362;2022-08-21T00:42:24;6.70;;;1.35;;
37787;SDS011;23627;53.302;-6.362;2022-08-21T00:44:51;7.30;;;1.65;;
37787;SDS011;23627;53.302;-6.362;2022-08-21T00:47:17;6.68;;;1.30;;
37787;SDS011;23627;53.302;-6.362;2022-08-21T00:49:43;8.23;;;1.40;;
37787;SDS011;23627;53.302;-6.362;2022-08-21T00:52:11;7.30;;;1.70;;
37787;SDS011;23627;53.302;-6.362;2022-08-21T00:54:46;4.93;;;1.13;;
37787;SDS011;23627;53.302;-6.362;2022-08-21T00:57:16;6.95;;;1.20;;
37787;SDS011;23627;53.302;-6.362;2022-08-21T00:59:46;5.75;;;1.40;;
37787;SDS011;23627;53.302;-6.362;2022-08-21T01:02:15;5.45;;;1.45;;
37787;SDS011;23627;53.302;-6.362;2022-08-21T01:04:42;6.50;;;1.60;;
37787;SDS011;23627;53.302;-6.362;2022-08-21T01:07:08;6.00;;;1.40;;
37787;SDS011;23627;53.302;-6.362;2022-08-21T01:09:35;4.55;;;1.70;;
37787;SDS011;23627;53.302;-6.362;2022-08-21T01:12:03;10.45;;;1.58;;
37787;SDS011;23627;53.302;-6.362;2022-08-21T01:14:30;9.35;;;1.80;;
37787;SDS011;23627;53.302;-6.362;2022-08-21T01:16:57;7.30;;;1.63;;
37787;SDS011;23627;53.302;-6.362;2022-08-21T01:19:24;5.78;;;1.40;;
37787;SDS011;23627;53.302;-6.362;2022-08-21T01:21:51;6.25;;;1.48;;
37787;SDS011;23627;53.302;-6.362;2022-08-21T01:24:18;9.50;;;1.60;;
37787;SDS011;23627;53.302;-6.362;2022-08-21T01:26:44;7.28;;;1.52;;
37787;SDS011;23627;53.302;-6.362;2022-08-21T01:29:15;7.47;;;1.33;;
37787;SDS011;23627;53.302;-6.362;2022-08-21T01:31:41;5.75;;;1.42;;
37787;SDS011;23627;53.302;-6.362;2022-08-21T01:34:08;6.85;;;1.45;;
37787;SDS011;23627;53.302;-6.362;2022-08-21T01:36:34;8.90;;;1.70;;
37787;SDS011;23627;53.302;-6.362;2022-08-21T01:39:00;7.40;;;1.65;;
37787;SDS011;23627;53.302;-6.362;2022-08-21T01:41:27;5.20;;;1.13;;
37787;SDS011;23627;53.302;-6.362;2022-08-21T01:43:53;8.32;;;1.30;;
37787;SDS011;23627;53.302;-6.362;2022-08-21T01:46:19;7.22;;;1.48;;
37787;SDS011;23627;53.302;-6.362;2022-08-21T01:48:45;8.75;;;1.60;;
37787;SDS011;23627;53.302;-6.362;2022-08-21T01:51:11;7.85;;;1.65;;
37787;SDS011;23627;53.302;-6.362;2022-08-21T01:53:37;6.72;;;1.30;;
37787;SDS011;23627;53.302;-6.362;2022-08-21T01:56:07;7.20;;;1.30;;
37787;SDS011;23627;53.302;-6.362;2022-08-21T01:58:34;7.18;;;1.50;;
37787;SDS011;23627;53.302;-6.362;2022-08-21T02:01:00;8.95;;;1.40;;
37787;SDS011;23627;53.302;-6.362;2022-08-21T02:03:28;6.38;;;1.38;;
37787;SDS011;23627;53.302;-6.362;2022-08-21T02:05:54;7.78;;;1.52;;
37787;SDS011;23627;53.302;-6.362;2022-08-21T02:08:20;6.35;;;1.50;;
37787;SDS011;23627;53.302;-6.362;2022-08-21T02:10:50;5.53;;;1.20;;
37787;SDS011;23627;53.302;-6.362;2022-08-21T02:13:16;6.85;;;1.60;;
37787;SDS011;23627;53.302;-6.362;2022-08-21T02:15:42;7.35;;;1.27;;
37787;SDS011;23627;53.302;-6.362;2022-08-21T02:18:08;5.93;;;1.30;;
37787;SDS011;23627;53.302;-6.362;2022-08-21T02:20:38;6.53;;;1.48;;
37787;SDS011;23627;53.302;-6.362;2022-08-21T02:23:07;7.55;;;1.40;;
37787;SDS011;23627;53.302;-6.362;2022-08-21T02:25:33;13.25;;;1.75;;
37787;SDS011;23627;53.302;-6.362;2022-08-21T02:28:10;7.95;;;1.40;;
37787;SDS011;23627;53.302;-6.362;2022-08-21T02:30:39;9.02;;;1.40;;
37787;SDS011;23627;53.302;-6.362;2022-08-21T02:33:07;7.07;;;1.45;;
37787;SDS011;23627;53.302;-6.362;2022-08-21T02:35:34;6.70;;;1.42;;
37787;SDS011;23627;53.302;-6.362;2022-08-21T02:38:07;7.32;;;1.30;;
37787;SDS011;23627;53.302;-6.362;2022-08-21T02:40:35;7.65;;;1.48;;
37787;SDS011;23627;53.302;-6.362;2022-08-21T02:43:03;4.88;;;1.30;;
37787;SDS011;23627;53.302;-6.362;2022-08-21T02:45:30;7.72;;;1.50;;
37787;SDS011;23627;53.302;-6.362;2022-08-21T02:48:02;4.82;;;1.38;;
37787;SDS011;23627;53.302;-6.362;2022-08-21T02:50:34;7.70;;;1.60;;
37787;SDS011;23627;53.302;-6.362;2022-08-21T02:53:06;6.55;;;1.40;;
37787;SDS011;23627;53.302;-6.362;2022-08-21T02:55:34;6.97;;;1.48;;
37787;SDS011;23627;53.302;-6.362;2022-08-21T02:58:02;8.00;;;1.45;;
37787;SDS011;23627;53.302;-6.362;2022-08-21T03:00:30;7.00;;;1.65;;
37787;SDS011;23627;53.302;-6.362;2022-08-21T03:02:57;4.60;;;1.30;;
37787;SDS011;23627;53.302;-6.362;2022-08-21T03:05:23;4.75;;;1.20;;
37787;SDS011;23627;53.302;-6.362;2022-08-21T03:07:50;7.70;;;1.30;;
37787;SDS011;23627;53.302;-6.362;2022-08-21T03:10:17;7.05;;;1.55;;
37787;SDS011;23627;53.302;-6.362;2022-08-21T03:12:45;7.05;;;1.90;;
37787;SDS011;23627;53.302;-6.362;2022-08-21T03:15:11;10.07;;;1.67;;
37787;SDS011;23627;53.302;-6.362;2022-08-21T03:17:40;8.68;;;1.52;;
37787;SDS011;23627;53.302;-6.362;2022-08-21T03:20:06;7.40;;;1.60;;
37787;SDS011;23627;53.302;-6.362;2022-08-21T03:22:33;7.97;;;1.13;;
37787;SDS011;23627;53.302;-6.362;2022-08-21T03:24:59;10.27;;;1.67;;
37787;SDS011;23627;53.302;-6.362;2022-08-21T03:27:26;8.98;;;1.40;;
37787;SDS011;23627;53.302;-6.362;2022-08-21T03:29:53;8.40;;;1.38;;
37787;SDS011;23627;53.302;-6.362;2022-08-21T03:32:19;7.40;;;1.50;;
37787;SDS011;23627;53.302;-6.362;2022-08-21T03:34:46;7.65;;;1.30;;
37787;SDS011;23627;53.302;-6.362;2022-08-21T03:37:13;7.32;;;1.27;;
37787;SDS011;23627;53.302;-6.362;2022-08-21T03:39:39;8.05;;;1.33;;
37787;SDS011;23627;53.302;-6.362;2022-08-21T03:42:06;6.57;;;1.30;;
37787;SDS011;23627;53.302;-6.362;2022-08-21T03:44:33;8.18;;;1.42;;
37787;SDS011;23627;53.302;-6.362;2022-08-21T03:46:59;9.80;;;1.60;;
37787;SDS011;23627;53.302;-6.362;2022-08-21T03:49:26;12.77;;;1.45;;
37787;SDS011;23627;53.302;-6.362;2022-08-21T03:51:52;5.88;;;1.20;;
37787;SDS011;23627;53.302;-6.362;2022-08-21T03:54:18;8.23;;;1.30;;
37787;SDS011;23627;53.302;-6.362;2022-08-21T03:56:45;6.18;;;1.27;;
37787;SDS011;23627;53.302;-6.362;2022-08-21T03:59:10;7.25;;;1.40;;
37787;SDS011;23627;53.302;-6.362;2022-08-21T04:01:37;4.55;;;1.20;;
37787;SDS011;23627;53.302;-6.362;2022-08-21T04:04:04;7.13;;;1.27;;
37787;SDS011;23627;53.302;-6.362;2022-08-21T04:06:30;9.15;;;1.20;;
37787;SDS011;23627;53.302;-6.362;2022-08-21T04:08:56;6.47;;;1.27;;
37787;SDS011;23627;53.302;-6.362;2022-08-21T04:11:23;7.85;;;1.20;;
37787;SDS011;23627;53.302;-6.362;2022-08-21T04:13:49;8.63;;;1.60;;
37787;SDS011;23627;53.302;-6.362;2022-08-21T04:16:14;7.35;;;1.30;;
37787;SDS011;23627;53.302;-6.362;2022-08-21T04:18:40;5.38;;;1.17;;
37787;SDS011;23627;53.302;-6.362;2022-08-21T04:21:07;8.10;;;1.38;;
37787;SDS011;23627;53.302;-6.362;2022-08-21T04:23:35;6.38;;;1.05;;
37787;SDS011;23627;53.302;-6.362;2022-08-21T04:26:02;6.18;;;1.40;;
37787;SDS011;23627;53.302;-6.362;2022-08-21T04:28:28;6.78;;;1.05;;
37787;SDS011;23627;53.302;-6.362;2022-08-21T04:30:54;4.43;;;1.10;;
37787;SDS011;23627;53.302;-6.362;2022-08-21T04:33:20;7.85;;;1.08;;
37787;SDS011;23627;53.302;-6.362;2022-08-21T04:35:47;6.93;;;1.58;;
37787;SDS011;23627;53.302;-6.362;2022-08-21T04:38:14;6.38;;;1.10;;
37787;SDS011;23627;53.302;-6.362;2022-08-21T04:40:40;4.90;;;0.98;;
37787;SDS011;23627;53.302;-6.362;2022-08-21T04:43:07;5.82;;;1.42;;
37787;SDS011;23627;53.302;-6.362;2022-08-21T04:45:37;7.38;;;1.20;;
37787;SDS011;23627;53.302;-6.362;2022-08-21T04:48:06;8.45;;;1.45;;
37787;SDS011;23627;53.302;-6.362;2022-08-21T04:53:26;7.57;;;1.25;;
37787;SDS011;23627;53.302;-6.362;2022-08-21T04:59:21;8.27;;;1.17;;
37787;SDS011;23627;53.302;-6.362;2022-08-21T05:04:16;8.18;;;1.10;;
37787;SDS011;23627;53.302;-6.362;2022-08-21T05:06:44;7.00;;;1.23;;
37787;SDS011;23627;53.302;-6.362;2022-08-21T05:09:12;6.00;;;1.08;;
37787;SDS011;23627;53.302;-6.362;2022-08-21T05:11:41;9.05;;;1.08;;
37787;SDS011;23627;53.302;-6.362;2022-08-21T05:14:07;3.08;;;0.90;;
37787;SDS011;23627;53.302;-6.362;2022-08-21T05:16:34;6.32;;;1.15;;
37787;SDS011;23627;53.302;-6.362;2022-08-21T05:19:00;7.00;;;1.05;;
37787;SDS011;23627;53.302;-6.362;2022-08-21T05:21:26;5.50;;;1.20;;
37787;SDS011;23627;53.302;-6.362;2022-08-21T05:23:52;5.20;;;1.10;;
37787;SDS011;23627;53.302;-6.362;2022-08-21T05:26:17;4.75;;;1.27;;
37787;SDS011;23627;53.302;-6.362;2022-08-21T05:28:43;6.45;;;1.20;;
37787;SDS011;23627;53.302;-6.362;2022-08-21T05:31:10;9.93;;;1.45;;
37787;SDS011;23627;53.302;-6.362;2022-08-21T05:33:35;3.65;;;0.80;;
37787;SDS011;23627;53.302;-6.362;2022-08-21T05:36:01;6.75;;;1.63;;
37787;SDS011;23627;53.302;-6.362;2022-08-21T05:38:27;5.97;;;0.90;;
37787;SDS011;23627;53.302;-6.362;2022-08-21T05:40:53;6.75;;;1.10;;
37787;SDS011;23627;53.302;-6.362;2022-08-21T05:43:19;5.97;;;1.27;;
37787;SDS011;23627;53.302;-6.362;2022-08-21T05:45:45;10.93;;;1.30;;
37787;SDS011;23627;53.302;-6.362;2022-08-21T05:48:13;9.02;;;1.80;;
37787;SDS011;23627;53.302;-6.362;2022-08-21T05:50:41;5.55;;;1.20;;
37787;SDS011;23627;53.302;-6.362;2022-08-21T05:53:08;5.90;;;0.90;;
37787;SDS011;23627;53.302;-6.362;2022-08-21T05:55:35;6.07;;;0.90;;
37787;SDS011;23627;53.302;-6.362;2022-08-21T05:58:02;3.55;;;0.93;;
37787;SDS011;23627;53.302;-6.362;2022-08-21T06:00:28;6.22;;;1.10;;
37787;SDS011;23627;53.302;-6.362;2022-08-21T06:02:54;6.28;;;1.00;;
37787;SDS011;23627;53.302;-6.362;2022-08-21T06:05:20;5.82;;;1.13;;
37787;SDS011;23627;53.302;-6.362;2022-08-21T06:07:45;8.57;;;1.20;;
37787;SDS011;23627;53.302;-6.362;2022-08-21T06:10:11;7.72;;;1.55;;
37787;SDS011;23627;53.302;-6.362;2022-08-21T06:12:37;7.00;;;1.30;;
37787;SDS011;23627;53.302;-6.362;2022-08-21T06:15:03;5.90;;;1.38;;
37787;SDS011;23627;53.302;-6.362;2022-08-21T06:17:29;4.32;;;0.95;;
37787;SDS011;23627;53.302;-6.362;2022-08-21T06:19:55;6.03;;;0.93;;
37787;SDS011;23627;53.302;-6.362;2022-08-21T06:22:21;5.10;;;1.08;;
37787;SDS011;23627;53.302;-6.362;2022-08-21T06:24:47;6.70;;;1.40;;
37787;SDS011;23627;53.302;-6.362;2022-08-21T06:27:13;4.72;;;0.98;;
37787;SDS011;23627;53.302;-6.362;2022-08-21T06:29:40;5.68;;;1.42;;
37787;SDS011;23627;53.302;-6.362;2022-08-21T06:32:06;7.60;;;1.55;;
37787;SDS011;23627;53.302;-6.362;2022-08-21T06:34:36;5.07;;;1.10;;
37787;SDS011;23627;53.302;-6.362;2022-08-21T06:37:03;6.88;;;1.05;;
37787;SDS011;23627;53.302;-6.362;2022-08-21T06:39:29;6.32;;;1.63;;
37787;SDS011;23627;53.302;-6.362;2022-08-21T06:41:54;5.32;;;1.20;;
37787;SDS011;23627;53.302;-6.362;2022-08-21T06:44:20;6.68;;;1.05;;
37787;SDS011;23627;53.302;-6.362;2022-08-21T06:46:46;4.93;;;0.90;;
37787;SDS011;23627;53.302;-6.362;2022-08-21T06:49:13;6.88;;;1.20;;
37787;SDS011;23627;53.302;-6.362;2022-08-21T06:51:39;6.35;;;1.67;;
37787;SDS011;23627;53.302;-6.362;2022-08-21T06:54:05;10.18;;;1.30;;
37787;SDS011;23627;53.302;-6.362;2022-08-21T06:56:31;5.43;;;0.90;;
37787;SDS011;23627;53.302;-6.362;2022-08-21T06:58:58;5.78;;;0.82;;
37787;SDS011;23627;53.302;-6.362;2022-08-21T07:01:25;9.35;;;1.20;;
37787;SDS011;23627;53.302;-6.362;2022-08-21T07:03:51;5.60;;;1.05;;
37787;SDS011;23627;53.302;-6.362;2022-08-21T07:06:17;6.10;;;1.00;;
37787;SDS011;23627;53.302;-6.362;2022-08-21T07:08:43;7.60;;;1.20;;
37787;SDS011;23627;53.302;-6.362;2022-08-21T07:11:11;6.22;;;1.00;;
37787;SDS011;23627;53.302;-6.362;2022-08-21T07:13:42;5.32;;;1.10;;
37787;SDS011;23627;53.302;-6.362;2022-08-21T07:16:07;8.75;;;0.90;;
37787;SDS011;23627;53.302;-6.362;2022-08-21T07:18:33;7.35;;;1.55;;
37787;SDS011;23627;53.302;-6.362;2022-08-21T07:21:00;7.45;;;1.27;;
37787;SDS011;23627;53.302;-6.362;2022-08-21T07:23:29;6.68;;;1.70;;
37787;SDS011;23627;53.302;-6.362;2022-08-21T07:25:57;5.20;;;1.38;;
37787;SDS011;23627;53.302;-6.362;2022-08-21T07:28:25;5.90;;;1.10;;
37787;SDS011;23627;53.302;-6.362;2022-08-21T07:30:52;5.07;;;1.02;;
37787;SDS011;23627;53.302;-6.362;2022-08-21T07:33:21;5.85;;;0.82;;
37787;SDS011;23627;53.302;-6.362;2022-08-21T07:35:47;6.15;;;1.10;;
37787;SDS011;23627;53.302;-6.362;2022-08-21T07:38:12;5.65;;;1.30;;
37787;SDS011;23627;53.302;-6.362;2022-08-21T07:40:38;7.68;;;1.23;;
37787;SDS011;23627;53.302;-6.362;2022-08-21T07:43:04;6.22;;;1.23;;
37787;SDS011;23627;53.302;-6.362;2022-08-21T07:45:30;5.45;;;1.50;;
37787;SDS011;23627;53.302;-6.362;2022-08-21T07:47:56;6.78;;;1.10;;
37787;SDS011;23627;53.302;-6.362;2022-08-21T07:50:22;6.43;;;1.17;;
37787;SDS011;23627;53.302;-6.362;2022-08-21T07:52:48;8.05;;;1.50;;
37787;SDS011;23627;53.302;-6.362;2022-08-21T07:55:15;8.70;;;1.20;;
37787;SDS011;23627;53.302;-6.362;2022-08-21T07:57:43;5.43;;;1.10;;
37787;SDS011;23627;53.302;-6.362;2022-08-21T08:00:11;5.65;;;1.08;;
37787;SDS011;23627;53.302;-6.362;2022-08-21T08:02:39;3.92;;;0.90;;
37787;SDS011;23627;53.302;-6.362;2022-08-21T08:05:06;4.38;;;0.95;;
37787;SDS011;23627;53.302;-6.362;2022-08-21T08:07:34;5.80;;;0.90;;
37787;SDS011;23627;53.302;-6.362;2022-08-21T08:10:00;5.00;;;1.10;;
37787;SDS011;23627;53.302;-6.362;2022-08-21T08:12:27;6.78;;;1.10;;
37787;SDS011;23627;53.302;-6.362;2022-08-21T08:14:58;5.88;;;1.15;;
37787;SDS011;23627;53.302;-6.362;2022-08-21T08:17:24;7.38;;;1.40;;
37787;SDS011;23627;53.302;-6.362;2022-08-21T08:19:50;7.70;;;1.15;;
37787;SDS011;23627;53.302;-6.362;2022-08-21T08:22:17;5.72;;;1.23;;
37787;SDS011;23627;53.302;-6.362;2022-08-21T08:24:48;5.43;;;1.00;;
37787;SDS011;23627;53.302;-6.362;2022-08-21T08:27:14;4.85;;;0.90;;
37787;SDS011;23627;53.302;-6.362;2022-08-21T08:29:41;3.88;;;0.93;;
37787;SDS011;23627;53.302;-6.362;2022-08-21T08:32:07;5.22;;;0.90;;
37787;SDS011;23627;53.302;-6.362;2022-08-21T08:34:34;4.78;;;1.05;;
37787;SDS011;23627;53.302;-6.362;2022-08-21T08:37:01;7.40;;;1.20;;
37787;SDS011;23627;53.302;-6.362;2022-08-21T08:39:28;3.88;;;0.80;;
37787;SDS011;23627;53.302;-6.362;2022-08-21T08:44:52;3.65;;;0.95;;
37787;SDS011;23627;53.302;-6.362;2022-08-21T08:47:25;3.65;;;0.73;;
37787;SDS011;23627;53.302;-6.362;2022-08-21T08:49:58;4.20;;;0.60;;
37787;SDS011;23627;53.302;-6.362;2022-08-21T08:52:43;4.82;;;0.88;;
37787;SDS011;23627;53.302;-6.362;2022-08-21T08:55:17;3.95;;;0.85;;
37787;SDS011;23627;53.302;-6.362;2022-08-21T08:57:51;5.20;;;1.17;;
37787;SDS011;23627;53.302;-6.362;2022-08-21T09:00:19;3.50;;;0.88;;
37787;SDS011;23627;53.302;-6.362;2022-08-21T09:02:46;4.53;;;0.85;;
37787;SDS011;23627;53.302;-6.362;2022-08-21T09:05:24;5.38;;;0.82;;
37787;SDS011;23627;53.302;-6.362;2022-08-21T09:11:03;5.63;;;0.98;;
37787;SDS011;23627;53.302;-6.362;2022-08-21T09:16:48;4.88;;;0.85;;
37787;SDS011;23627;53.302;-6.362;2022-08-21T09:24:47;3.90;;;0.80;;
37787;SDS011;23627;53.302;-6.362;2022-08-21T09:27:36;4.40;;;0.60;;
37787;SDS011;23627;53.302;-6.362;2022-08-21T09:30:04;3.20;;;0.70;;
37787;SDS011;23627;53.302;-6.362;2022-08-21T09:32:32;2.78;;;0.50;;
37787;SDS011;23627;53.302;-6.362;2022-08-21T09:35:03;3.72;;;0.52;;
37787;SDS011;23627;53.302;-6.362;2022-08-21T09:37:44;3.67;;;0.75;;
37787;SDS011;23627;53.302;-6.362;2022-08-21T09:43:01;2.05;;;0.65;;
37787;SDS011;23627;53.302;-6.362;2022-08-21T09:45:42;3.20;;;0.40;;
37787;SDS011;23627;53.302;-6.362;2022-08-21T09:50:35;2.88;;;0.43;;
37787;SDS011;23627;53.302;-6.362;2022-08-21T09:53:01;3.13;;;0.60;;
37787;SDS011;23627;53.302;-6.362;2022-08-21T09:55:38;3.22;;;0.57;;
37787;SDS011;23627;53.302;-6.362;2022-08-21T09:58:46;1.70;;;0.40;;
37787;SDS011;23627;53.302;-6.362;2022-08-21T10:01:15;4.15;;;0.63;;
37787;SDS011;23627;53.302;-6.362;2022-08-21T10:03:43;2.38;;;0.50;;
37787;SDS011;23627;53.302;-6.362;2022-08-21T10:06:10;2.47;;;0.65;;
37787;SDS011;23627;53.302;-6.362;2022-08-21T10:08:47;2.05;;;0.50;;
37787;SDS011;23627;53.302;-6.362;2022-08-21T10:11:14;3.65;;;0.65;;
37787;SDS011;23627;53.302;-6.362;2022-08-21T10:13:53;4.07;;;0.68;;
37787;SDS011;23627;53.302;-6.362;2022-08-21T10:16:30;2.83;;;0.52;;
37787;SDS011;23627;53.302;-6.362;2022-08-21T10:27:26;1.95;;;0.60;;
37787;SDS011;23627;53.302;-6.362;2022-08-21T10:30:04;3.10;;;0.60;;
37787;SDS011;23627;53.302;-6.362;2022-08-21T10:35:14;2.15;;;0.32;;
37787;SDS011;23627;53.302;-6.362;2022-08-21T10:40:55;2.50;;;0.50;;
37787;SDS011;23627;53.302;-6.362;2022-08-21T10:46:50;4.00;;;0.70;;
37787;SDS011;23627;53.302;-6.362;2022-08-21T10:54:47;2.63;;;0.50;;
37787;SDS011;23627;53.302;-6.362;2022-08-21T11:00:09;2.80;;;0.70;;
37787;SDS011;23627;53.302;-6.362;2022-08-21T11:05:51;2.83;;;0.52;;
37787;SDS011;23627;53.302;-6.362;2022-08-21T11:08:19;4.20;;;0.60;;
37787;SDS011;23627;53.302;-6.362;2022-08-21T11:11:15;3.53;;;0.68;;
37787;SDS011;23627;53.302;-6.362;2022-08-21T11:13:55;3.83;;;0.70;;
37787;SDS011;23627;53.302;-6.362;2022-08-21T11:21:42;4.00;;;0.60;;
37787;SDS011;23627;53.302;-6.362;2022-08-21T11:27:01;2.70;;;0.60;;
37787;SDS011;23627;53.302;-6.362;2022-08-21T11:29:40;2.97;;;0.60;;
37787;SDS011;23627;53.302;-6.362;2022-08-21T11:35:10;2.30;;;0.60;;
37787;SDS011;23627;53.302;-6.362;2022-08-21T11:46:09;3.75;;;0.70;;
37787;SDS011;23627;53.302;-6.362;2022-08-21T11:51:39;4.10;;;0.60;;
37787;SDS011;23627;53.302;-6.362;2022-08-21T11:56:54;2.97;;;0.47;;
37787;SDS011;23627;53.302;-6.362;2022-08-21T11:59:35;2.28;;;0.55;;
37787;SDS011;23627;53.302;-6.362;2022-08-21T12:02:12;2.67;;;0.60;;
37787;SDS011;23627;53.302;-6.362;2022-08-21T12:05:23;1.90;;;0.47;;
37787;SDS011;23627;53.302;-6.362;2022-08-21T12:07:36;1.88;;;0.55;;
37787;SDS011;23627;53.302;-6.362;2022-08-21T12:10:11;3.03;;;0.50;;
37787;SDS011;23627;53.302;-6.362;2022-08-21T12:12:41;1.88;;;0.50;;
37787;SDS011;23627;53.302;-6.362;2022-08-21T12:23:01;2.65;;;0.45;;
37787;SDS011;23627;53.302;-6.362;2022-08-21T12:28:43;2.72;;;0.60;;
37787;SDS011;23627;53.302;-6.362;2022-08-21T12:31:23;1.73;;;0.45;;
37787;SDS011;23627;53.302;-6.362;2022-08-21T12:33:55;2.47;;;0.52;;
37787;SDS011;23627;53.302;-6.362;2022-08-21T12:36:25;1.75;;;0.50;;
37787;SDS011;23627;53.302;-6.362;2022-08-21T12:39:15;2.35;;;0.73;;
37787;SDS011;23627;53.302;-6.362;2022-08-21T12:41:49;2.90;;;0.70;;
37787;SDS011;23627;53.302;-6.362;2022-08-21T12:44:38;2.22;;;0.50;;
37787;SDS011;23627;53.302;-6.362;2022-08-21T12:47:15;1.98;;;0.70;;
37787;SDS011;23627;53.302;-6.362;2022-08-21T12:49:54;15.40;;;1.45;;
37787;SDS011;23627;53.302;-6.362;2022-08-21T12:52:30;3.95;;;0.57;;
37787;SDS011;23627;53.302;-6.362;2022-08-21T12:55:01;7.20;;;0.80;;
37787;SDS011;23627;53.302;-6.362;2022-08-21T12:57:28;3.67;;;0.80;;
37787;SDS011;23627;53.302;-6.362;2022-08-21T13:00:03;32.83;;;2.15;;
37787;SDS011;23627;53.302;-6.362;2022-08-21T13:02:37;5.13;;;0.50;;
37787;SDS011;23627;53.302;-6.362;2022-08-21T13:05:11;4.93;;;0.60;;
37787;SDS011;23627;53.302;-6.362;2022-08-21T13:07:43;4.10;;;0.95;;
37787;SDS011;23627;53.302;-6.362;2022-08-21T13:10:16;5.38;;;0.60;;
37787;SDS011;23627;53.302;-6.362;2022-08-21T13:13:15;7.13;;;0.90;;
37787;SDS011;23627;53.302;-6.362;2022-08-21T13:15:43;4.18;;;0.60;;
37787;SDS011;23627;53.302;-6.362;2022-08-21T13:18:18;3.33;;;0.63;;
37787;SDS011;23627;53.302;-6.362;2022-08-21T13:21:01;3.17;;;0.70;;
37787;SDS011;23627;53.302;-6.362;2022-08-21T13:23:33;3.88;;;0.80;;
37787;SDS011;23627;53.302;-6.362;2022-08-21T13:25:59;3.90;;;0.50;;
37787;SDS011;23627;53.302;-6.362;2022-08-21T13:28:34;3.03;;;0.55;;
37787;SDS011;23627;53.302;-6.362;2022-08-21T13:31:05;3.38;;;0.77;;
37787;SDS011;23627;53.302;-6.362;2022-08-21T13:33:35;2.53;;;0.68;;
37787;SDS011;23627;53.302;-6.362;2022-08-21T13:36:09;1.95;;;0.60;;
37787;SDS011;23627;53.302;-6.362;2022-08-21T13:38:42;4.10;;;0.60;;
37787;SDS011;23627;53.302;-6.362;2022-08-21T13:44:13;3.22;;;0.73;;
37787;SDS011;23627;53.302;-6.362;2022-08-21T13:46:44;1.88;;;0.52;;
37787;SDS011;23627;53.302;-6.362;2022-08-21T13:49:12;2.50;;;0.70;;
37787;SDS011;23627;53.302;-6.362;2022-08-21T13:51:40;4.40;;;0.85;;
37787;SDS011;23627;53.302;-6.362;2022-08-21T13:54:41;2.03;;;0.70;;
37787;SDS011;23627;53.302;-6.362;2022-08-21T13:57:14;2.65;;;0.75;;
37787;SDS011;23627;53.302;-6.362;2022-08-21T13:59:42;2.63;;;0.60;;
37787;SDS011;23627;53.302;-6.362;2022-08-21T14:02:08;2.15;;;0.45;;
37787;SDS011;23627;53.302;-6.362;2022-08-21T14:04:50;2.50;;;0.60;;
37787;SDS011;23627;53.302;-6.362;2022-08-21T14:07:24;3.10;;;0.50;;
37787;SDS011;23627;53.302;-6.362;2022-08-21T14:10:05;3.13;;;0.60;;
37787;SDS011;23627;53.302;-6.362;2022-08-21T14:12:58;2.50;;;0.77;;
37787;SDS011;23627;53.302;-6.362;2022-08-21T14:15:27;3.42;;;0.73;;
37787;SDS011;23627;53.302;-6.362;2022-08-21T14:18:16;2.58;;;0.60;;
37787;SDS011;23627;53.302;-6.362;2022-08-21T14:20:43;2.40;;;0.50;;
37787;SDS011;23627;53.302;-6.362;2022-08-21T14:23:10;2.47;;;0.60;;
37787;SDS011;23627;53.302;-6.362;2022-08-21T14:25:40;2.20;;;0.70;;
37787;SDS011;23627;53.302;-6.362;2022-08-21T14:30:53;3.63;;;0.63;;
37787;SDS011;23627;53.302;-6.362;2022-08-21T14:33:28;2.25;;;0.47;;
37787;SDS011;23627;53.302;-6.362;2022-08-21T14:35:56;3.08;;;0.57;;
37787;SDS011;23627;53.302;-6.362;2022-08-21T14:38:23;3.03;;;0.70;;
37787;SDS011;23627;53.302;-6.362;2022-08-21T14:40:52;3.35;;;0.68;;
37787;SDS011;23627;53.302;-6.362;2022-08-21T14:43:21;3.72;;;0.60;;
37787;SDS011;23627;53.302;-6.362;2022-08-21T14:45:48;2.53;;;0.45;;
37787;SDS011;23627;53.302;-6.362;2022-08-21T14:48:14;2.13;;;0.57;;
37787;SDS011;23627;53.302;-6.362;2022-08-21T14:50:40;3.45;;;0.50;;
37787;SDS011;23627;53.302;-6.362;2022-08-21T14:53:08;2.50;;;0.60;;
37787;SDS011;23627;53.302;-6.362;2022-08-21T14:55:34;2.25;;;0.50;;
37787;SDS011;23627;53.302;-6.362;2022-08-21T14:58:22;2.65;;;0.65;;
37787;SDS011;23627;53.302;-6.362;2022-08-21T15:00:51;2.88;;;0.60;;
37787;SDS011;23627;53.302;-6.362;2022-08-21T15:03:18;3.63;;;0.47;;
37787;SDS011;23627;53.302;-6.362;2022-08-21T15:05:46;3.72;;;0.60;;
37787;SDS011;23627;53.302;-6.362;2022-08-21T15:08:13;2.47;;;0.50;;
37787;SDS011;23627;53.302;-6.362;2022-08-21T15:10:39;1.88;;;0.45;;
37787;SDS011;23627;53.302;-6.362;2022-08-21T15:13:05;3.35;;;0.57;;
37787;SDS011;23627;53.302;-6.362;2022-08-21T15:15:34;2.47;;;0.60;;
37787;SDS011;23627;53.302;-6.362;2022-08-21T15:18:05;2.08;;;0.55;;
37787;SDS011;23627;53.302;-6.362;2022-08-21T15:20:31;3.55;;;0.60;;
37787;SDS011;23627;53.302;-6.362;2022-08-21T15:22:58;1.95;;;0.45;;
37787;SDS011;23627;53.302;-6.362;2022-08-21T15:25:24;1.75;;;0.40;;
37787;SDS011;23627;53.302;-6.362;2022-08-21T15:27:50;2.25;;;0.50;;
37787;SDS011;23627;53.302;-6.362;2022-08-21T15:30:16;3.13;;;0.60;;
37787;SDS011;23627;53.302;-6.362;2022-08-21T15:32:42;2.70;;;0.43;;
37787;SDS011;23627;53.302;-6.362;2022-08-21T15:35:09;2.33;;;0.50;;
37787;SDS011;23627;53.302;-6.362;2022-08-21T15:37:35;1.50;;;0.40;;
37787;SDS011;23627;53.302;-6.362;2022-08-21T15:40:01;1.38;;;0.22;;
37787;SDS011;23627;53.302;-6.362;2022-08-21T15:42:28;1.52;;;0.47;;
37787;SDS011;23627;53.302;-6.362;2022-08-21T15:44:55;2.03;;;0.50;;
37787;SDS011;23627;53.302;-6.362;2022-08-21T15:47:24;3.08;;;0.50;;
37787;SDS011;23627;53.302;-6.362;2022-08-21T15:49:54;3.28;;;0.40;;
37787;SDS011;23627;53.302;-6.362;2022-08-21T15:52:20;1.63;;;0.40;;
37787;SDS011;23627;53.302;-6.362;2022-08-21T15:54:48;3.28;;;0.60;;
37787;SDS011;23627;53.302;-6.362;2022-08-21T15:57:15;2.35;;;0.50;;
37787;SDS011;23627;53.302;-6.362;2022-08-21T15:59:44;1.83;;;0.50;;
37787;SDS011;23627;53.302;-6.362;2022-08-21T16:02:15;1.90;;;0.60;;
37787;SDS011;23627;53.302;-6.362;2022-08-21T16:04:46;2.78;;;0.65;;
37787;SDS011;23627;53.302;-6.362;2022-08-21T16:07:12;2.83;;;0.60;;
37787;SDS011;23627;53.302;-6.362;2022-08-21T16:09:38;2.33;;;0.63;;
37787;SDS011;23627;53.302;-6.362;2022-08-21T16:12:05;3.00;;;0.68;;
37787;SDS011;23627;53.302;-6.362;2022-08-21T16:14:31;3.08;;;0.80;;
37787;SDS011;23627;53.302;-6.362;2022-08-21T16:16:59;3.00;;;0.80;;
37787;SDS011;23627;53.302;-6.362;2022-08-21T16:19:26;2.35;;;0.80;;
37787;SDS011;23627;53.302;-6.362;2022-08-21T16:21:53;3.22;;;0.52;;
37787;SDS011;23627;53.302;-6.362;2022-08-21T16:24:19;2.88;;;0.70;;